| Date | Time | Temp. (oF) | Dew Point (oF) | Rel. Hum. (%) | Press. (in.) | Wind Dir. | Wind Speed (mph) | Hourly Rainfall (in.) |
|
|---|---|---|---|---|---|---|---|---|---|
| 1 | 04/20 | 00:00 | 64 | 53 | 68 | 29.98 | W | 1 | 0.00 |
| 2 | 04/19 | 23:00 | 65 | 52 | 65 | 29.97 | WSW | 0 | 0.00 |
| 3 | 04/19 | 22:00 | 68 | 53 | 59 | 29.97 | WSW | 0 | 0.00 |
| 4 | 04/19 | 21:00 | 72 | 53 | 53 | 29.95 | SW | 1 | 0.00 |
| 5 | 04/19 | 20:00 | 74 | 54 | 50 | 29.94 | SW | 3 | 0.00 |
| 6 | 04/19 | 19:00 | 76 | 54 | 48 | 29.94 | SSW | 5 | 0.00 |
| 7 | 04/19 | 18:00 | 80 | 53 | 40 | 29.93 | WSW | 7 | 0.00 |
| 8 | 04/19 | 17:00 | 83 | 51 | 34 | 29.93 | W | 6 | 0.00 |
| 9 | 04/19 | 16:00 | 83 | 51 | 34 | 29.94 | NW | 6 | 0.00 |
| 10 | 04/19 | 15:00 | 82 | 53 | 38 | 29.98 | NW | 5 | 0.00 |
| 11 | 04/19 | 14:00 | 80 | 48 | 34 | 30.01 | NW | 12 | 0.00 |
| 12 | 04/19 | 13:00 | 78 | 50 | 39 | 30.03 | WSW | 9 | 0.00 |
| 13 | 04/19 | 12:00 | 76 | 52 | 44 | 30.06 | NNW | 9 | 0.00 |
| 14 | 04/19 | 11:00 | 72 | 53 | 52 | 30.07 | WSW | 4 | 0.00 |
| 15 | 04/19 | 10:00 | 65 | 52 | 65 | 30.08 | SSE | 0 | 0.00 |
| 16 | 04/19 | 09:00 | 55 | 51 | 88 | 30.08 | SSE | 0 | 0.00 |
| 17 | 04/19 | 08:00 | 48 | 46 | 96 | 30.09 | ESE | 0 | 0.00 |
| 18 | 04/19 | 07:00 | 45 | 43 | 93 | 30.08 | ESE | 0 | 0.00 |
| 19 | 04/19 | 06:00 | 46 | 43 | 91 | 30.07 | ESE | 0 | 0.00 |
| 20 | 04/19 | 05:00 | 48 | 44 | 88 | 30.07 | NNE | 0 | 0.00 |
| 21 | 04/19 | 04:00 | 50 | 46 | 87 | 30.08 | NNE | 0 | 0.00 |
| 22 | 04/19 | 03:00 | 51 | 46 | 83 | 30.08 | W | 0 | 0.00 |
| 23 | 04/19 | 02:00 | 52 | 46 | 81 | 30.08 | SW | 0 | 0.00 |
| 24 | 04/19 | 01:00 | 54 | 46 | 76 | 30.09 | SW | 0 | 0.00 |